NCAR-RAP Real-Time Weather Data

Output produced by METARs form (10 April 2020  07:16 UTC)
found at http://weather.rap.ucar.edu/surface/
 
KIPT 100654Z AUTO 27010KT 10SM FEW035 FEW042 02/M02 A2944 RMK AO2 SLP970 T00221017 $